createdAt,value
2022-11-30T00:00:41.882Z,17.73
2022-11-30T00:01:43.273Z,16.07
2022-11-30T00:02:45.137Z,12.33
2022-11-30T00:03:47.142Z,19.20
2022-11-30T00:04:48.698Z,13.57
2022-11-30T00:05:50.391Z,17.53
2022-11-30T00:06:57.034Z,16.67
2022-11-30T00:08:01.592Z,10.97
2022-11-30T00:09:03.126Z,51.40
2022-11-30T00:10:06.454Z,14.87
2022-11-30T00:11:18.680Z,10.20
2022-11-30T00:12:20.123Z,11.20
2022-11-30T00:13:21.506Z,12.43
2022-11-30T00:14:22.899Z,11.03
2022-11-30T00:15:24.431Z,16.87
2022-11-30T00:16:27.804Z,10.67
2022-11-30T00:17:29.399Z,10.10
2022-11-30T00:18:30.877Z,15.27
2022-11-30T00:19:32.265Z,9.73
2022-11-30T00:20:33.746Z,10.37
2022-11-30T00:21:35.148Z,10.53
2022-11-30T00:22:36.614Z,9.67
2022-11-30T00:23:40.431Z,11.10
2022-11-30T00:24:42.118Z,9.67
2022-11-30T00:25:43.889Z,9.90
2022-11-30T00:26:45.550Z,14.40
2022-11-30T00:27:47.008Z,11.10
2022-11-30T00:28:49.426Z,12.87
2022-11-30T00:29:50.811Z,12.37
2022-11-30T00:31:04.565Z,14.20
2022-11-30T00:32:06.185Z,17.90
2022-11-30T00:33:07.657Z,12.80
2022-11-30T00:34:09.098Z,11.97
2022-11-30T00:35:10.508Z,13.27
2022-11-30T00:36:17.899Z,14.07
2022-11-30T00:37:19.597Z,14.97
2022-11-30T00:38:20.995Z,10.13
2022-11-30T00:39:22.770Z,10.70
2022-11-30T00:40:24.678Z,11.90
2022-11-30T00:41:26.135Z,20.20
2022-11-30T00:42:27.597Z,11.13
2022-11-30T00:43:29.728Z,9.33
2022-11-30T00:44:31.758Z,11.70
2022-11-30T00:45:33.146Z,18.20
2022-11-30T00:46:34.649Z,11.27
2022-11-30T00:47:36.252Z,9.47
2022-11-30T00:48:41.247Z,15.13
2022-11-30T00:49:42.734Z,9.00
2022-11-30T00:50:44.160Z,9.30
2022-11-30T00:51:45.627Z,10.00
2022-11-30T00:52:47.260Z,12.47
2022-11-30T00:53:48.749Z,13.57
2022-11-30T00:54:50.493Z,10.70
2022-11-30T00:55:51.992Z,11.80
2022-11-30T00:56:54.819Z,21.80
2022-11-30T00:57:56.182Z,9.07
2022-11-30T00:58:57.569Z,9.43
2022-11-30T00:59:58.979Z,11.13
2022-11-30T01:01:01.113Z,9.37
2022-11-30T01:02:02.840Z,11.13
2022-11-30T01:03:04.718Z,11.50
2022-11-30T01:04:06.583Z,9.40
2022-11-30T01:05:08.454Z,11.80
2022-11-30T01:06:10.595Z,10.30
2022-11-30T01:07:12.051Z,16.80
2022-11-30T01:08:13.829Z,9.10
2022-11-30T01:09:15.786Z,8.57
2022-11-30T01:10:17.970Z,10.33
2022-11-30T01:11:25.343Z,7.90
2022-11-30T01:12:26.779Z,11.73
2022-11-30T01:13:28.206Z,9.93
2022-11-30T01:14:30.092Z,11.23
2022-11-30T01:15:35.900Z,8.50
2022-11-30T01:16:37.770Z,9.23
2022-11-30T01:17:39.508Z,8.10
2022-11-30T01:18:41.783Z,14.37
2022-11-30T01:19:43.219Z,9.97
2022-11-30T01:20:44.829Z,8.70
2022-11-30T01:21:46.294Z,8.60
2022-11-30T01:22:47.753Z,10.60
2022-11-30T01:23:49.715Z,9.27
2022-11-30T01:24:51.153Z,7.67
2022-11-30T01:25:55.864Z,10.03
2022-11-30T01:26:57.367Z,9.10
2022-11-30T01:27:58.792Z,8.40
2022-11-30T01:29:00.645Z,8.03
2022-11-30T01:30:02.503Z,8.73
2022-11-30T01:31:07.471Z,10.80
2022-11-30T01:32:09.115Z,8.47
2022-11-30T01:33:10.486Z,7.97
2022-11-30T01:34:11.970Z,8.13
2022-11-30T01:35:13.489Z,7.83
2022-11-30T01:36:17.690Z,7.57
2022-11-30T01:37:19.245Z,11.73
2022-11-30T01:38:20.725Z,8.43
2022-11-30T01:39:22.364Z,9.67
2022-11-30T01:40:23.908Z,7.57
2022-11-30T01:41:31.354Z,11.47
2022-11-30T01:42:33.439Z,7.43
2022-11-30T01:43:43.223Z,7.57
2022-11-30T01:44:50.995Z,8.27
2022-11-30T01:45:52.539Z,7.80
2022-11-30T01:46:57.101Z,7.60
2022-11-30T01:47:58.574Z,10.40
2022-11-30T01:49:18.238Z,8.03
2022-11-30T01:50:27.439Z,7.17
2022-11-30T01:51:41.882Z,8.37
2022-11-30T01:52:48.697Z,8.50
2022-11-30T01:53:51.183Z,7.30
2022-11-30T01:54:58.883Z,7.10
2022-11-30T01:56:00.796Z,7.37
2022-11-30T01:57:23.524Z,10.40
2022-11-30T01:58:27.663Z,7.00
2022-11-30T01:59:29.638Z,8.90
2022-11-30T02:00:31.427Z,8.60
2022-11-30T02:01:33.078Z,6.33
2022-11-30T02:02:45.072Z,7.87
2022-11-30T02:03:56.877Z,7.23
2022-11-30T02:04:59.353Z,6.93
2022-11-30T02:06:01.114Z,8.03
2022-11-30T02:07:05.738Z,7.57
2022-11-30T02:08:09.971Z,8.30
2022-11-30T02:09:13.027Z,8.47
2022-11-30T02:10:17.106Z,7.67
2022-11-30T02:11:20.234Z,7.70
2022-11-30T02:12:52.667Z,7.77
2022-11-30T02:13:57.160Z,7.67
2022-11-30T02:15:04.954Z,7.20
2022-11-30T02:16:20.115Z,9.03
2022-11-30T02:17:35.860Z,6.70
2022-11-30T02:18:55.870Z,7.83
2022-11-30T02:20:19.077Z,6.70
2022-11-30T02:21:32.739Z,7.17
2022-11-30T02:22:55.555Z,6.60
2022-11-30T02:24:08.188Z,7.30
2022-11-30T02:25:34.284Z,5.87
2022-11-30T02:27:12.922Z,7.00
2022-11-30T02:29:11.023Z,15.73
2022-11-30T02:30:16.551Z,6.80
2022-11-30T02:31:23.616Z,7.30
2022-11-30T02:32:46.576Z,6.27
2022-11-30T02:33:50.713Z,7.53
2022-11-30T02:34:54.475Z,8.00
2022-11-30T02:35:57.719Z,6.23
2022-11-30T02:37:01.052Z,6.90
2022-11-30T02:38:04.462Z,6.77
2022-11-30T02:39:07.114Z,7.90
2022-11-30T02:40:10.588Z,6.77
2022-11-30T02:41:12.310Z,7.47
2022-11-30T02:42:15.392Z,7.60
2022-11-30T02:43:19.752Z,7.27
2022-11-30T02:44:22.927Z,7.00
2022-11-30T02:45:34.726Z,6.20
2022-11-30T02:46:45.816Z,7.80
2022-11-30T02:48:06.946Z,7.17
2022-11-30T02:49:24.715Z,6.10
2022-11-30T02:50:32.564Z,7.10
2022-11-30T02:51:37.576Z,6.03
2022-11-30T02:52:39.594Z,6.73
2022-11-30T02:53:41.760Z,6.60
2022-11-30T02:54:43.887Z,6.63
2022-11-30T02:55:45.366Z,9.47
2022-11-30T02:56:46.845Z,7.70
2022-11-30T02:57:48.413Z,12.47
2022-11-30T02:58:50.194Z,7.23
2022-11-30T02:59:51.702Z,6.63
2022-11-30T03:00:53.871Z,6.33
2022-11-30T03:01:56.160Z,7.17
2022-11-30T03:02:57.773Z,7.20
2022-11-30T03:03:59.253Z,8.27
2022-11-30T03:05:01.063Z,7.73
2022-11-30T03:06:02.487Z,10.10
2022-11-30T03:07:04.043Z,12.63
2022-11-30T03:08:05.878Z,10.23
2022-11-30T03:09:07.633Z,11.80
2022-11-30T03:10:25.750Z,9.73
2022-11-30T03:11:27.134Z,10.97
2022-11-30T03:12:29.003Z,11.47
2022-11-30T03:13:34.610Z,10.60
2022-11-30T03:14:35.997Z,11.70
2022-11-30T03:15:37.449Z,10.30
2022-11-30T03:16:39.053Z,22.90
2022-11-30T03:17:40.689Z,10.87
2022-11-30T03:18:42.136Z,10.40
2022-11-30T03:19:43.857Z,10.53
2022-11-30T03:20:45.980Z,10.60
2022-11-30T03:21:47.512Z,9.67
2022-11-30T03:22:49.626Z,9.57
2022-11-30T03:23:51.072Z,9.07
2022-11-30T03:24:52.800Z,9.13
2022-11-30T03:25:58.902Z,8.50
2022-11-30T03:27:00.577Z,8.73
2022-11-30T03:28:02.575Z,10.07
2022-11-30T03:29:04.101Z,8.90
2022-11-30T03:30:06.228Z,10.07
2022-11-30T03:31:12.679Z,8.73
2022-11-30T03:32:14.502Z,8.50
2022-11-30T03:33:16.976Z,7.70
2022-11-30T03:34:18.638Z,10.67
2022-11-30T03:35:20.237Z,9.27
2022-11-30T03:36:21.922Z,8.33
2022-11-30T03:37:23.395Z,8.97
2022-11-30T03:38:24.825Z,11.63
2022-11-30T03:39:26.888Z,9.23
2022-11-30T03:40:28.234Z,8.47
2022-11-30T03:41:29.963Z,8.20
2022-11-30T03:42:31.561Z,9.10
2022-11-30T03:43:33.482Z,8.67
2022-11-30T03:44:34.844Z,7.30
2022-11-30T03:45:36.200Z,8.77
2022-11-30T03:46:37.733Z,8.80
2022-11-30T03:47:39.241Z,8.53
2022-11-30T03:48:43.758Z,8.53
2022-11-30T03:49:45.506Z,9.10
2022-11-30T03:50:49.838Z,7.90
2022-11-30T03:51:51.299Z,10.37
2022-11-30T03:52:52.887Z,8.90
2022-11-30T03:53:54.800Z,7.77
2022-11-30T03:54:56.203Z,8.50
2022-11-30T03:56:02.841Z,7.87
2022-11-30T03:57:04.297Z,7.57
2022-11-30T03:58:05.795Z,7.50
2022-11-30T03:59:07.329Z,7.80
2022-11-30T04:00:09.253Z,7.87
2022-11-30T04:01:15.711Z,8.47
2022-11-30T04:02:17.073Z,7.47
2022-11-30T04:03:18.583Z,8.67
2022-11-30T04:04:20.263Z,7.90
2022-11-30T04:05:22.615Z,8.27
2022-11-30T04:06:24.290Z,7.57
2022-11-30T04:07:25.730Z,10.33
2022-11-30T04:08:28.359Z,7.80
2022-11-30T04:09:30.015Z,9.70
2022-11-30T04:10:31.537Z,8.47
2022-11-30T04:11:32.998Z,9.60
2022-11-30T04:12:34.466Z,7.53
2022-11-30T04:13:37.608Z,7.33
2022-11-30T04:14:39.192Z,8.77
2022-11-30T04:15:41.763Z,7.23
2022-11-30T04:16:43.226Z,6.60
2022-11-30T04:17:44.892Z,7.43
2022-11-30T04:18:46.551Z,7.70
2022-11-30T04:19:47.947Z,7.00
2022-11-30T04:20:54.378Z,7.07
2022-11-30T04:21:55.974Z,7.70
2022-11-30T04:23:00.152Z,9.10
2022-11-30T04:24:01.816Z,8.13
2022-11-30T04:25:03.355Z,7.70
2022-11-30T04:26:11.301Z,8.07
2022-11-30T04:27:13.180Z,9.20
2022-11-30T04:28:16.444Z,8.13
2022-11-30T04:29:17.908Z,10.20
2022-11-30T04:30:19.366Z,8.30
2022-11-30T04:31:20.945Z,8.87
2022-11-30T04:32:22.438Z,10.43
2022-11-30T04:33:24.006Z,10.07
2022-11-30T04:34:28.692Z,7.73
2022-11-30T04:35:30.164Z,14.63
2022-11-30T04:36:31.680Z,9.70
2022-11-30T04:37:33.113Z,8.27
2022-11-30T04:38:36.676Z,9.30
2022-11-30T04:39:38.067Z,8.93
2022-11-30T04:40:40.923Z,10.47
2022-11-30T04:41:42.378Z,8.83
2022-11-30T04:42:43.836Z,9.90
2022-11-30T04:43:45.342Z,10.73
2022-11-30T04:44:47.158Z,9.97
2022-11-30T04:45:49.150Z,9.47
2022-11-30T04:46:51.072Z,9.20
2022-11-30T04:47:52.685Z,9.97
2022-11-30T04:48:54.119Z,9.47
2022-11-30T04:49:55.510Z,10.27
2022-11-30T04:51:06.120Z,8.97
2022-11-30T04:52:07.636Z,9.67
2022-11-30T04:53:09.410Z,9.17
2022-11-30T04:54:10.974Z,10.00
2022-11-30T04:55:12.471Z,8.63
2022-11-30T04:56:13.943Z,9.10
2022-11-30T04:57:15.351Z,8.70
2022-11-30T04:58:17.072Z,9.37
2022-11-30T04:59:18.521Z,9.70
2022-11-30T05:00:20.800Z,21.33
2022-11-30T05:01:22.295Z,14.00
2022-11-30T05:02:23.902Z,8.47
2022-11-30T05:03:25.427Z,8.27
2022-11-30T05:04:27.033Z,8.13
2022-11-30T05:05:28.625Z,8.87
2022-11-30T05:06:30.102Z,8.90
2022-11-30T05:07:32.741Z,8.80
2022-11-30T05:08:34.171Z,7.57
2022-11-30T05:09:35.746Z,9.10
2022-11-30T05:10:37.249Z,7.57
2022-11-30T05:11:38.644Z,8.50
2022-11-30T05:12:40.035Z,7.73
2022-11-30T05:13:41.403Z,8.77
2022-11-30T05:14:43.080Z,7.20
2022-11-30T05:15:46.033Z,7.87
2022-11-30T05:16:48.447Z,8.47
2022-11-30T05:17:49.881Z,8.87
2022-11-30T05:18:51.241Z,9.10
2022-11-30T05:19:52.825Z,7.70
2022-11-30T05:20:54.322Z,9.13
2022-11-30T05:21:55.980Z,8.97
2022-11-30T05:22:57.947Z,8.70
2022-11-30T05:23:59.713Z,21.00
2022-11-30T05:25:01.611Z,17.13
2022-11-30T05:26:03.470Z,8.20
2022-11-30T05:27:09.251Z,7.63
2022-11-30T05:28:15.475Z,6.67
2022-11-30T05:29:16.997Z,7.37
2022-11-30T05:30:19.167Z,8.13
2022-11-30T05:31:20.680Z,8.40
2022-11-30T05:32:22.328Z,8.67
2022-11-30T05:33:23.922Z,7.90
2022-11-30T05:34:25.478Z,7.57
2022-11-30T05:35:26.955Z,7.07
2022-11-30T05:36:28.415Z,7.87
2022-11-30T05:37:30.252Z,7.33
2022-11-30T05:38:31.699Z,8.50
2022-11-30T05:39:33.098Z,8.97
2022-11-30T05:40:34.638Z,8.90
2022-11-30T05:41:36.039Z,8.47
2022-11-30T05:42:37.785Z,7.63
2022-11-30T05:43:39.381Z,7.57
2022-11-30T05:44:40.821Z,7.67
2022-11-30T05:45:42.462Z,8.87
2022-11-30T05:46:43.974Z,7.70
2022-11-30T05:47:45.556Z,8.23
2022-11-30T05:48:46.958Z,6.63
2022-11-30T05:49:48.796Z,7.53
2022-11-30T05:50:50.406Z,7.10
2022-11-30T05:51:51.886Z,7.60
2022-11-30T05:52:57.222Z,9.03
2022-11-30T05:53:58.696Z,7.10
2022-11-30T05:55:00.149Z,6.93
2022-11-30T05:56:06.947Z,7.07
2022-11-30T05:57:08.398Z,6.97
2022-11-30T05:58:09.818Z,7.13
2022-11-30T05:59:11.731Z,8.37
2022-11-30T06:00:13.957Z,6.80
2022-11-30T06:01:23.962Z,8.17
2022-11-30T06:02:28.379Z,7.10
2022-11-30T06:03:31.206Z,7.17
2022-11-30T06:04:34.283Z,7.07
2022-11-30T06:05:36.561Z,6.37
2022-11-30T06:06:37.988Z,7.13
2022-11-30T06:07:40.857Z,6.93
2022-11-30T06:08:42.556Z,7.57
2022-11-30T06:09:44.212Z,8.47
2022-11-30T06:10:46.236Z,7.77
2022-11-30T06:11:47.755Z,7.40
2022-11-30T06:12:49.169Z,6.67
2022-11-30T06:13:50.621Z,7.03
2022-11-30T06:14:52.100Z,9.00
2022-11-30T06:15:53.582Z,20.20
2022-11-30T06:16:55.040Z,7.77
2022-11-30T06:17:56.913Z,7.33
2022-11-30T06:18:58.307Z,7.87
2022-11-30T06:20:00.012Z,6.77
2022-11-30T06:21:03.201Z,8.00
2022-11-30T06:22:04.643Z,6.90
2022-11-30T06:23:06.114Z,8.03
2022-11-30T06:24:08.126Z,7.00
2022-11-30T06:25:09.526Z,8.00
2022-11-30T06:26:12.169Z,7.93
2022-11-30T06:27:13.965Z,7.17
2022-11-30T06:28:15.411Z,8.23
2022-11-30T06:29:16.914Z,7.93
2022-11-30T06:30:18.358Z,7.07
2022-11-30T06:31:20.228Z,8.27
2022-11-30T06:32:21.765Z,6.50
2022-11-30T06:33:23.592Z,7.93
2022-11-30T06:34:24.962Z,7.60
2022-11-30T06:35:26.330Z,6.80
2022-11-30T06:36:32.716Z,6.60
2022-11-30T06:37:37.242Z,7.67
2022-11-30T06:38:38.650Z,8.37
2022-11-30T06:41:09.905Z,6.77
2022-11-30T06:42:11.413Z,8.13
2022-11-30T06:43:13.076Z,7.57
2022-11-30T06:44:14.513Z,7.93
2022-11-30T06:45:16.085Z,6.63
2022-11-30T06:46:17.714Z,6.83
2022-11-30T06:47:19.174Z,8.30
2022-11-30T06:48:23.247Z,6.80
2022-11-30T06:49:24.714Z,9.57
2022-11-30T06:50:26.230Z,6.83
2022-11-30T06:51:27.651Z,5.87
2022-11-30T06:52:31.269Z,6.23
2022-11-30T06:53:32.870Z,6.83
2022-11-30T06:54:34.232Z,16.13
2022-11-30T06:55:35.679Z,10.10
2022-11-30T06:56:37.133Z,9.30
2022-11-30T06:57:38.552Z,9.87
2022-11-30T06:58:40.893Z,7.30
2022-11-30T06:59:42.602Z,7.20
2022-11-30T07:00:44.168Z,7.20
2022-11-30T07:01:45.714Z,6.40
2022-11-30T07:02:47.155Z,6.60
2022-11-30T07:03:48.863Z,7.47
2022-11-30T07:04:50.684Z,6.70
2022-11-30T07:05:54.156Z,6.70
2022-11-30T07:06:56.544Z,7.03
2022-11-30T07:07:57.964Z,6.03
2022-11-30T07:08:59.370Z,7.83
2022-11-30T07:10:00.818Z,7.13
2022-11-30T07:11:02.725Z,6.00
2022-11-30T07:12:04.816Z,6.60
2022-11-30T07:13:06.399Z,7.33
2022-11-30T07:14:07.771Z,7.10
2022-11-30T07:15:11.007Z,7.10
2022-11-30T07:16:12.772Z,7.70
2022-11-30T07:17:14.494Z,7.07
2022-11-30T07:18:16.152Z,6.90
2022-11-30T07:19:17.658Z,6.73
2022-11-30T07:20:19.049Z,7.27
2022-11-30T07:21:20.873Z,7.03
2022-11-30T07:22:22.498Z,6.33
2022-11-30T07:23:42.646Z,7.30
2022-11-30T07:25:02.854Z,6.63
2022-11-30T07:26:07.252Z,7.33
2022-11-30T07:27:08.674Z,7.03
2022-11-30T07:28:10.106Z,6.37
2022-11-30T07:29:11.467Z,6.07
2022-11-30T07:30:13.289Z,7.17
2022-11-30T07:31:20.565Z,9.67
2022-11-30T07:32:22.113Z,6.67
2022-11-30T07:33:23.525Z,6.80
2022-11-30T07:34:25.049Z,6.47
2022-11-30T07:35:26.892Z,7.03
2022-11-30T07:36:30.293Z,6.87
2022-11-30T07:37:31.787Z,7.47
2022-11-30T07:38:33.207Z,6.23
2022-11-30T07:39:34.891Z,6.43
2022-11-30T07:40:36.323Z,6.83
2022-11-30T07:41:38.543Z,7.70
2022-11-30T07:42:39.961Z,6.07
2022-11-30T07:43:41.563Z,6.57
2022-11-30T07:44:43.341Z,6.40
2022-11-30T07:45:52.412Z,6.50
2022-11-30T07:46:54.089Z,6.80
2022-11-30T07:47:55.780Z,5.93
2022-11-30T07:48:57.420Z,7.30
2022-11-30T07:49:59.064Z,6.67
2022-11-30T07:51:05.411Z,5.77
2022-11-30T07:52:07.074Z,5.13
2022-11-30T07:53:08.576Z,5.90
2022-11-30T07:54:10.088Z,5.33
2022-11-30T07:55:11.611Z,5.83
2022-11-30T07:56:16.168Z,5.87
2022-11-30T07:57:17.783Z,5.23
2022-11-30T07:58:19.172Z,5.07
2022-11-30T07:59:20.554Z,5.83
2022-11-30T08:00:21.980Z,5.87
2022-11-30T08:01:25.305Z,4.77
2022-11-30T08:02:26.972Z,5.80
2022-11-30T08:03:32.312Z,5.80
2022-11-30T08:04:36.664Z,5.20
2022-11-30T08:05:38.401Z,5.90
2022-11-30T08:06:40.861Z,5.47
2022-11-30T08:07:42.339Z,5.60
2022-11-30T08:08:45.634Z,5.33
2022-11-30T08:09:48.994Z,5.00
2022-11-30T08:10:50.592Z,5.23
2022-11-30T08:11:52.056Z,5.27
2022-11-30T08:12:53.531Z,6.30
2022-11-30T08:13:55.238Z,5.00
2022-11-30T08:15:19.420Z,11.00
2022-11-30T08:16:20.826Z,6.80
2022-11-30T08:17:22.265Z,4.47
2022-11-30T08:18:23.679Z,4.23
2022-11-30T08:19:25.082Z,4.23
2022-11-30T08:20:26.552Z,3.97
2022-11-30T08:21:28.089Z,4.77
2022-11-30T08:22:29.906Z,4.97
2022-11-30T08:23:34.241Z,5.07
2022-11-30T08:24:35.710Z,4.77
2022-11-30T08:25:37.592Z,4.40
2022-11-30T08:26:39.146Z,5.00
2022-11-30T08:27:40.635Z,4.57
2022-11-30T08:28:44.134Z,4.67
2022-11-30T08:29:46.151Z,4.50
2022-11-30T08:30:48.072Z,4.57
2022-11-30T08:31:49.820Z,4.17
2022-11-30T08:32:51.749Z,4.47
2022-11-30T08:34:03.099Z,5.00
2022-11-30T08:35:04.888Z,4.83
2022-11-30T08:36:14.730Z,4.80
2022-11-30T08:37:16.612Z,4.70
2022-11-30T08:38:18.485Z,18.13
2022-11-30T08:39:20.093Z,4.60
2022-11-30T08:40:21.486Z,5.37
2022-11-30T08:41:23.282Z,4.17
2022-11-30T08:42:24.722Z,5.60
2022-11-30T08:43:26.240Z,4.30
2022-11-30T08:44:29.156Z,4.90
2022-11-30T08:45:30.698Z,4.50
2022-11-30T08:46:50.897Z,5.43
2022-11-30T08:47:54.682Z,4.07
2022-11-30T08:49:12.949Z,3.93
2022-11-30T08:50:17.906Z,4.03
2022-11-30T08:51:20.402Z,4.40
2022-11-30T08:52:22.009Z,5.50
2022-11-30T08:53:23.458Z,4.30
2022-11-30T08:54:26.311Z,6.37
2022-11-30T08:55:27.748Z,4.60
2022-11-30T08:56:29.631Z,5.37
2022-11-30T08:57:31.491Z,4.70
2022-11-30T08:58:35.139Z,4.37
2022-11-30T08:59:36.810Z,4.70
2022-11-30T09:00:38.213Z,5.23
2022-11-30T09:01:42.363Z,4.37
2022-11-30T09:02:43.757Z,3.93
2022-11-30T09:03:46.774Z,5.13
2022-11-30T09:04:49.460Z,4.50
2022-11-30T09:05:51.435Z,3.90
2022-11-30T09:06:52.869Z,5.13
2022-11-30T09:07:54.436Z,4.47
2022-11-30T09:08:58.487Z,4.30
2022-11-30T09:10:00.293Z,4.67
2022-11-30T09:11:12.457Z,4.40
2022-11-30T09:12:14.282Z,3.97
2022-11-30T09:13:15.743Z,4.07
2022-11-30T09:14:17.367Z,4.50
2022-11-30T09:15:18.816Z,4.40
2022-11-30T09:16:20.970Z,4.40
2022-11-30T09:17:22.485Z,4.23
2022-11-30T09:18:23.999Z,5.30
2022-11-30T09:19:25.804Z,3.90
2022-11-30T09:20:27.273Z,4.27
2022-11-30T09:21:29.097Z,7.53
2022-11-30T09:22:30.706Z,3.53
2022-11-30T09:23:32.164Z,4.40
2022-11-30T09:24:33.689Z,4.33
2022-11-30T09:25:35.132Z,5.10
2022-11-30T09:26:36.612Z,4.27
2022-11-30T09:27:38.041Z,4.20
2022-11-30T09:28:39.778Z,5.23
2022-11-30T09:29:41.712Z,4.60
2022-11-30T09:30:43.188Z,4.03
2022-11-30T09:31:44.678Z,4.07
2022-11-30T09:32:46.201Z,3.93
2022-11-30T09:33:48.428Z,4.20
2022-11-30T09:34:51.043Z,4.20
2022-11-30T09:36:00.630Z,5.57
2022-11-30T09:37:02.236Z,5.60
2022-11-30T09:38:05.048Z,6.00
2022-11-30T09:39:09.482Z,5.37
2022-11-30T09:40:13.506Z,4.57
2022-11-30T09:41:39.255Z,4.10
2022-11-30T09:42:58.778Z,4.40
2022-11-30T09:44:21.754Z,4.20
2022-11-30T09:45:30.714Z,4.30
2022-11-30T09:46:54.504Z,4.13
2022-11-30T09:48:05.976Z,3.83
2022-11-30T09:49:18.831Z,4.67
2022-11-30T09:50:28.139Z,3.67
2022-11-30T09:51:50.041Z,3.87
2022-11-30T09:52:56.061Z,5.10
2022-11-30T09:54:02.597Z,4.80
2022-11-30T09:55:09.678Z,3.60
2022-11-30T09:56:32.099Z,4.40
2022-11-30T09:57:48.410Z,4.37
2022-11-30T09:59:25.923Z,4.77
2022-11-30T10:00:27.708Z,3.60
2022-11-30T10:01:32.641Z,4.20
2022-11-30T10:02:38.724Z,6.40
2022-11-30T10:03:40.536Z,3.77
2022-11-30T10:04:42.262Z,4.80
2022-11-30T10:05:51.571Z,4.43
2022-11-30T10:07:24.323Z,4.87
2022-11-30T10:08:31.218Z,6.90
2022-11-30T10:09:49.465Z,5.07
2022-11-30T10:11:25.734Z,4.40
2022-11-30T10:12:44.914Z,4.40
2022-11-30T10:14:27.649Z,4.67
2022-11-30T10:16:05.379Z,4.00
2022-11-30T10:17:28.475Z,4.73
2022-11-30T10:18:49.064Z,4.97
2022-11-30T10:19:56.776Z,3.47
2022-11-30T10:21:22.524Z,4.07
2022-11-30T10:23:04.158Z,4.37
2022-11-30T10:24:08.799Z,3.77
2022-11-30T10:25:48.711Z,4.20
2022-11-30T10:27:08.838Z,3.90
2022-11-30T10:29:51.072Z,3.63
2022-11-30T10:30:52.615Z,3.80
2022-11-30T10:31:59.087Z,5.73
2022-11-30T10:33:05.817Z,4.20
2022-11-30T10:34:35.423Z,4.23
2022-11-30T10:35:49.978Z,5.50
2022-11-30T10:37:02.957Z,3.57
2022-11-30T10:38:24.263Z,3.27
2022-11-30T10:39:29.939Z,4.43
2022-11-30T10:40:35.000Z,3.77
2022-11-30T10:41:44.484Z,3.57
2022-11-30T10:42:58.869Z,3.33
2022-11-30T10:44:15.327Z,3.80
2022-11-30T10:45:24.434Z,4.40
2022-11-30T10:46:36.493Z,3.93
2022-11-30T10:47:59.968Z,3.60
2022-11-30T10:49:06.823Z,5.80
2022-11-30T10:50:13.615Z,14.70
2022-11-30T10:51:15.723Z,4.00
2022-11-30T10:52:21.865Z,3.60
2022-11-30T10:53:23.490Z,4.60
2022-11-30T10:54:25.002Z,4.00
2022-11-30T10:55:31.723Z,4.10
2022-11-30T10:56:33.149Z,3.30
2022-11-30T10:57:35.294Z,3.93
2022-11-30T10:58:41.062Z,3.40
2022-11-30T10:59:49.209Z,3.47
2022-11-30T11:01:07.829Z,3.53
2022-11-30T11:02:37.166Z,3.90
2022-11-30T11:03:38.920Z,3.90
2022-11-30T11:04:40.344Z,3.50
2022-11-30T11:05:41.743Z,3.97
2022-11-30T11:06:56.209Z,3.20
2022-11-30T11:08:07.064Z,3.60
2022-11-30T11:09:27.408Z,3.57
2022-11-30T11:10:36.562Z,3.90
2022-11-30T11:11:39.540Z,4.03
2022-11-30T11:12:48.535Z,4.67
2022-11-30T11:13:49.911Z,5.60
2022-11-30T11:15:17.722Z,3.47
2022-11-30T11:16:19.226Z,3.90
2022-11-30T11:17:22.555Z,3.13
2022-11-30T11:18:27.172Z,3.60
2022-11-30T11:19:44.184Z,3.40
2022-11-30T11:20:45.928Z,3.43
2022-11-30T11:21:50.316Z,3.47
2022-11-30T11:22:51.727Z,6.03
2022-11-30T11:23:55.807Z,5.63
2022-11-30T11:25:21.462Z,3.50
2022-11-30T11:26:25.371Z,3.60
2022-11-30T11:27:30.595Z,3.47
2022-11-30T11:28:33.910Z,4.20
2022-11-30T11:29:35.868Z,4.00
2022-11-30T11:30:38.587Z,3.90
2022-11-30T11:31:49.101Z,4.30
2022-11-30T11:33:09.065Z,5.20
2022-11-30T11:34:31.937Z,7.40
2022-11-30T11:35:46.505Z,5.07
2022-11-30T11:37:03.671Z,3.73
2022-11-30T11:38:19.619Z,6.23
2022-11-30T11:39:28.126Z,4.13
2022-11-30T11:40:29.840Z,5.13
2022-11-30T11:41:35.303Z,11.70
2022-11-30T11:42:52.396Z,4.80
2022-11-30T11:44:05.120Z,5.77
2022-11-30T11:45:14.804Z,3.83
2022-11-30T11:46:16.855Z,4.03
2022-11-30T11:47:37.326Z,4.00
2022-11-30T11:48:45.133Z,3.90
2022-11-30T11:49:49.641Z,5.20
2022-11-30T11:51:07.756Z,4.23
2022-11-30T11:52:09.327Z,4.07
2022-11-30T11:53:25.476Z,4.03
2022-11-30T11:54:36.226Z,4.07
2022-11-30T11:55:39.127Z,4.03
2022-11-30T11:56:41.028Z,9.50
2022-11-30T11:57:49.246Z,3.67
2022-11-30T11:59:04.916Z,3.60
2022-11-30T12:00:16.632Z,4.17
2022-11-30T12:01:44.942Z,3.40
2022-11-30T12:03:08.358Z,2.83
2022-11-30T12:04:25.117Z,3.10
2022-11-30T12:05:35.120Z,4.07
2022-11-30T12:06:37.699Z,2.63
2022-11-30T12:08:02.823Z,3.30
2022-11-30T12:09:13.667Z,4.10
2022-11-30T12:10:53.568Z,3.03
2022-11-30T12:11:48.053Z,3.27
2022-11-30T12:12:53.482Z,3.20
2022-11-30T12:13:56.416Z,3.87
2022-11-30T12:14:58.018Z,3.37
2022-11-30T12:16:11.750Z,2.93
2022-11-30T12:17:16.431Z,3.37
2022-11-30T12:18:29.601Z,3.00
2022-11-30T12:19:45.355Z,3.17
2022-11-30T12:20:58.436Z,3.27
2022-11-30T12:22:17.781Z,3.03
2022-11-30T12:23:42.709Z,15.43
2022-11-30T12:25:11.472Z,3.70
2022-11-30T12:26:28.453Z,3.17
2022-11-30T12:27:46.825Z,6.30
2022-11-30T12:29:15.002Z,3.20
2022-11-30T12:30:35.596Z,3.20
2022-11-30T12:31:46.680Z,2.80
2022-11-30T12:33:06.105Z,3.93
2022-11-30T12:34:12.661Z,3.03
2022-11-30T12:35:45.986Z,3.23
2022-11-30T12:36:59.422Z,4.70
2022-11-30T12:38:13.551Z,3.13
2022-11-30T12:39:47.898Z,3.70
2022-11-30T12:41:18.128Z,3.10
2022-11-30T12:42:49.788Z,3.40
2022-11-30T12:44:10.079Z,2.70
2022-11-30T12:45:24.229Z,3.23
2022-11-30T12:46:53.181Z,2.87
2022-11-30T12:47:54.857Z,2.87
2022-11-30T12:49:20.170Z,2.30
2022-11-30T12:50:30.962Z,2.90
2022-11-30T12:51:54.031Z,3.43
2022-11-30T12:53:04.729Z,3.00
2022-11-30T12:54:21.252Z,3.20
2022-11-30T12:55:46.081Z,3.07
2022-11-30T12:57:12.994Z,2.83
2022-11-30T12:58:42.094Z,3.23
2022-11-30T13:00:08.032Z,3.50
2022-11-30T13:01:39.398Z,3.10
2022-11-30T13:03:05.247Z,3.40
2022-11-30T13:04:20.524Z,2.83
2022-11-30T13:05:48.563Z,2.87
2022-11-30T13:06:58.335Z,2.70
2022-11-30T13:08:11.529Z,3.10
2022-11-30T13:09:29.672Z,2.93
2022-11-30T13:10:42.889Z,3.20
2022-11-30T13:11:53.779Z,3.50
2022-11-30T13:12:57.265Z,3.23
2022-11-30T13:14:00.576Z,2.97
2022-11-30T13:15:15.641Z,2.83
2022-11-30T13:16:19.168Z,4.23
2022-11-30T13:17:21.623Z,3.20
2022-11-30T13:18:24.619Z,3.00
2022-11-30T13:19:28.770Z,3.80
2022-11-30T13:20:38.927Z,3.93
2022-11-30T13:21:49.242Z,3.60
2022-11-30T13:23:07.078Z,3.20
2022-11-30T13:24:14.108Z,3.23
2022-11-30T13:26:06.833Z,2.77
2022-11-30T13:27:03.572Z,2.97
2022-11-30T13:28:41.055Z,2.80
2022-11-30T13:30:16.456Z,2.80
2022-11-30T13:31:22.519Z,3.13
2022-11-30T13:33:56.721Z,2.87
2022-11-30T13:35:29.239Z,2.90
2022-11-30T13:36:49.382Z,2.47
2022-11-30T13:38:36.376Z,2.77
2022-11-30T13:39:50.231Z,2.40
2022-11-30T13:40:58.028Z,2.90
2022-11-30T13:42:02.281Z,3.50
2022-11-30T13:43:03.864Z,2.80
2022-11-30T13:44:06.327Z,2.53
2022-11-30T13:45:13.574Z,3.20
2022-11-30T13:46:21.870Z,2.80
2022-11-30T13:47:34.719Z,2.77
2022-11-30T13:48:41.579Z,2.50
2022-11-30T13:49:43.978Z,2.73
2022-11-30T13:50:49.045Z,3.57
2022-11-30T13:52:13.614Z,3.00
2022-11-30T13:53:28.617Z,2.93
2022-11-30T13:54:40.340Z,3.10
2022-11-30T13:55:41.702Z,2.77
2022-11-30T13:56:48.433Z,2.70
2022-11-30T13:57:50.268Z,2.87
2022-11-30T13:59:25.769Z,2.30
2022-11-30T14:00:30.495Z,2.90
2022-11-30T14:01:32.193Z,3.23
2022-11-30T14:02:33.858Z,3.30
2022-11-30T14:03:35.286Z,2.63
2022-11-30T14:04:46.117Z,3.10
2022-11-30T14:05:51.442Z,2.80
2022-11-30T14:06:59.312Z,3.40
2022-11-30T14:08:00.821Z,4.50
2022-11-30T14:09:02.611Z,2.50
2022-11-30T14:10:24.985Z,2.60
2022-11-30T14:11:44.909Z,2.80
2022-11-30T14:12:47.838Z,2.90
2022-11-30T14:13:49.417Z,2.83
2022-11-30T14:14:51.072Z,2.53
2022-11-30T14:15:55.615Z,2.73
2022-11-30T14:16:58.170Z,2.43
2022-11-30T14:18:19.195Z,3.80
2022-11-30T14:19:21.103Z,2.40
2022-11-30T14:20:27.870Z,3.30
2022-11-30T14:21:33.689Z,2.50
2022-11-30T14:22:35.280Z,2.93
2022-11-30T14:23:39.940Z,2.77
2022-11-30T14:24:45.442Z,2.93
2022-11-30T14:25:50.997Z,2.97
2022-11-30T14:26:52.934Z,2.87
2022-11-30T14:27:55.730Z,2.90
2022-11-30T14:29:09.365Z,2.67
2022-11-30T14:30:19.012Z,3.03
2022-11-30T14:31:27.124Z,2.57
2022-11-30T14:32:40.344Z,2.57
2022-11-30T14:34:00.538Z,3.10
2022-11-30T14:35:22.966Z,3.10
2022-11-30T14:36:32.835Z,2.63
2022-11-30T14:37:42.976Z,3.07
2022-11-30T14:38:44.831Z,2.90
2022-11-30T14:39:48.766Z,2.90
2022-11-30T14:40:52.296Z,2.63
2022-11-30T14:41:54.622Z,2.80